Spalding, Michigan
Current Conditions -  °F | °C
As of 6:15 PM on Sunday 23 Nov 2014 (Local Time) from KESC Reporting Station
Overcast Overcast  
Wind Chill:   Ceiling: 200
Heat Index:   Visibility: 0.75mi
Dew Point:   Wind: 6mph
Humidity: 87%   Direction: 160°SSE
Pressure: 29.43"   Gusts: NA
Location:  45.7°N, 87.51°W
Report Text: KESC 240015Z AUTO 16005KT 3/4SM OVC002 06/04 A2943 RMK AO1
Loading
Personal Weather Stations






























Interactive Weather Map New forecast layout! Learn more

10-Day Weather Forecast

Advertisements
Track Severe Weather on mobile